Time;durP1;ratioP1;P1;durP2;ratioP2;P2;SDS_P1;SDS_P2;PMS_P1;PMS_P2;Temp;Humidity;BMP_temperature;BMP_pressure;BME280_temperature;BME280_humidity;BME280_pressure;Samples;Min_cycle;Max_cycle;Signal;HPM_P1;HPM_P2
2023/03/27 00:01:06;;;;;;;14.50;2.15;;;2.20;99.90;;;-144.05;64.84;57040.00;5053502;28;20031;-78
2023/03/27 00:03:33;;;;;;;13.65;2.55;;;2.20;99.90;;;-144.05;64.71;57050.63;5035220;28;20029;-76
2023/03/27 00:06:06;;;;;;;10.15;1.90;;;2.20;99.90;;;-144.05;65.48;57025.13;5053066;28;20039;-75
2023/03/27 00:08:32;;;;;;;20.25;2.83;;;2.10;99.90;;;-144.05;65.47;57048.50;5052414;28;20552;-76
2023/03/27 00:11:02;;;;;;;7.47;1.48;;;2.10;99.90;;;-144.05;65.17;57056.97;5052962;28;20116;-78
2023/03/27 00:13:29;;;;;;;18.58;3.97;;;2.20;99.90;;;-144.05;65.84;57056.97;5052716;28;20025;-77
2023/03/27 00:15:57;;;;;;;7.60;1.80;;;2.20;99.90;;;-144.05;65.15;57046.38;5052463;28;20394;-77
2023/03/27 00:18:25;;;;;;;14.07;2.28;;;2.10;99.90;;;-144.05;65.58;57031.50;5052791;28;20442;-77
2023/03/27 00:20:51;;;;;;;7.55;1.77;;;2.00;99.90;;;-144.05;65.70;57044.25;5053867;28;20108;-77
2023/03/27 00:23:21;;;;;;;9.23;2.05;;;2.00;99.90;;;-144.05;66.16;57046.38;5053578;28;20480;-78
2023/03/27 00:25:49;;;;;;;13.05;1.75;;;2.00;99.90;;;-144.05;66.36;57065.47;5053470;28;20024;-77
2023/03/27 00:28:17;;;;;;;10.10;1.77;;;2.00;99.90;;;-144.05;65.94;57054.88;5052622;28;20481;-78
2023/03/27 00:30:44;;;;;;;9.90;2.13;;;2.00;99.90;;;-144.05;66.09;57061.22;5034312;28;20052;-77
2023/03/27 00:33:14;;;;;;;12.80;2.33;;;2.00;99.90;;;-144.05;66.35;57078.22;5036018;28;20063;-77
2023/03/27 00:35:46;;;;;;;15.63;2.30;;;1.90;99.90;;;-144.05;66.71;57076.09;5053247;28;20025;-76
2023/03/27 00:38:13;;;;;;;19.38;3.72;;;1.80;99.90;;;-144.05;66.67;57044.25;5053447;28;20155;-77
2023/03/27 00:40:42;;;;;;;11.73;2.22;;;1.80;99.90;;;-144.05;66.71;57067.59;5053255;28;20029;-76
2023/03/27 00:43:29;;;;;;;18.27;2.25;;;1.80;99.90;;;-144.05;66.98;57042.13;5053335;28;20285;-78
2023/03/27 00:46:37;;;;;;;9.05;2.17;;;1.70;99.90;;;-144.05;67.36;57056.97;5053733;28;20104;-76
2023/03/27 00:49:11;;;;;;;14.00;4.18;;;1.70;99.90;;;-144.05;67.76;57061.22;5035217;28;20025;-76
2023/03/27 00:51:42;;;;;;;9.23;1.83;;;1.70;99.90;;;-144.05;67.44;57048.50;5052718;28;20052;-75
2023/03/27 00:54:15;;;;;;;12.68;3.22;;;1.70;99.90;;;-144.05;67.29;57059.09;5051970;28;20025;-77
2023/03/27 00:56:43;;;;;;;13.40;2.55;;;1.70;99.90;;;-144.05;67.53;57046.38;5052274;28;20439;-77
2023/03/27 00:59:18;;;;;;;11.23;1.70;;;1.80;99.90;;;-144.05;67.58;57052.75;5051831;28;20132;-77
2023/03/27 01:01:46;;;;;;;15.27;2.05;;;1.70;99.90;;;-144.05;67.78;57048.50;5052164;28;20033;-78
2023/03/27 01:04:12;;;;;;;7.47;1.75;;;1.70;99.90;;;-144.05;67.88;57054.88;5052232;28;20481;-77
2023/03/27 01:06:40;;;;;;;14.60;2.13;;;1.70;99.90;;;-144.05;67.59;57050.63;5053153;28;20029;-77
2023/03/27 01:09:08;;;;;;;16.45;3.30;;;1.60;99.90;;;-144.05;67.69;57059.09;5052508;28;20056;-77
2023/03/27 01:12:04;;;;;;;7.55;2.00;;;1.60;99.90;;;-144.05;68.37;57040.00;5034236;28;20082;-76
2023/03/27 01:15:04;;;;;;;16.23;3.13;;;1.60;99.90;;;-144.05;68.68;57063.34;5052531;28;20033;-76
2023/03/27 01:18:25;;;;;;;9.25;1.73;;;1.70;99.90;;;-144.05;68.46;57061.22;5052355;28;20033;-78
2023/03/27 01:21:47;;;;;;;11.45;2.20;;;1.60;99.90;;;-144.05;68.82;57044.25;4970952;28;20038;-76
2023/03/27 01:24:49;;;;;;;16.52;2.50;;;1.60;99.90;;;-144.05;68.48;57044.25;5051554;28;20112;-76
2023/03/27 01:28:07;;;;;;;10.10;2.33;;;1.50;99.90;;;-144.05;68.50;57080.34;5051295;28;20033;-77
2023/03/27 01:31:53;;;;;;;14.25;2.50;;;1.50;99.90;;;-144.05;69.04;57061.22;5052304;28;20021;-77
2023/03/27 01:35:05;;;;;;;10.88;2.38;;;1.50;99.90;;;-144.05;68.62;57054.88;4991955;28;20039;-78
2023/03/27 01:37:55;;;;;;;4.63;2.25;;;1.50;99.90;;;-144.05;68.89;57069.72;5035021;28;20080;-78
2023/03/27 01:40:38;;;;;;;11.50;2.22;;;1.50;99.90;;;-144.05;68.81;57073.97;5052325;28;20029;-77
2023/03/27 01:43:17;;;;;;;11.68;2.50;;;1.40;99.90;;;-144.05;69.52;57067.59;5052913;28;20040;-78
2023/03/27 01:46:22;;;;;;;9.75;2.15;;;1.30;99.90;;;-144.05;70.19;57059.09;5054119;28;20028;-78
2023/03/27 01:49:29;;;;;;;12.27;2.50;;;1.30;99.90;;;-144.05;69.78;57056.97;5052741;28;20051;-76
2023/03/27 01:52:03;;;;;;;11.68;2.90;;;1.20;99.90;;;-144.05;69.67;57052.75;5052618;28;20025;-75
2023/03/27 01:54:45;;;;;;;20.27;2.92;;;1.10;99.90;;;-144.05;69.63;57071.84;5039144;28;20033;-76
2023/03/27 01:57:48;;;;;;;9.45;2.45;;;1.00;99.90;;;-144.05;69.88;57086.72;5051295;28;20400;-76
2023/03/27 02:00:21;;;;;;;10.55;1.92;;;0.90;99.90;;;-144.05;70.10;57073.97;5050695;28;20033;-78
2023/03/27 02:03:13;;;;;;;11.65;2.22;;;0.90;99.90;;;-144.05;70.31;57048.50;5050980;28;20033;-76
2023/03/27 02:06:38;;;;;;;11.27;2.25;;;0.80;99.90;;;-144.05;71.27;57073.97;5051310;28;20033;-77
2023/03/27 02:09:28;;;;;;;12.85;1.98;;;0.70;99.90;;;-144.05;70.77;57069.72;5062361;28;20041;-77
2023/03/27 02:12:39;;;;;;;11.57;2.20;;;0.60;99.90;;;-144.05;70.98;57080.34;5042610;28;20194;-78
2023/03/27 02:15:20;;;;;;;8.52;3.38;;;0.60;99.90;;;-144.05;71.66;57084.59;5033388;28;20040;-78
2023/03/27 02:18:05;;;;;;;10.15;1.88;;;0.60;99.90;;;-144.05;71.74;57067.59;5050901;28;20037;-78
2023/03/27 02:20:38;;;;;;;12.95;3.30;;;0.50;99.90;;;-144.05;71.80;57097.34;5051227;28;20044;-78
2023/03/27 02:23:06;;;;;;;15.18;2.70;;;0.50;99.90;;;-144.05;72.46;57065.47;5050979;28;20376;-76
2023/03/27 02:25:44;;;;;;;8.48;2.40;;;0.50;99.90;;;-144.05;72.70;57059.09;5051263;28;20028;-76
2023/03/27 02:28:40;;;;;;;11.88;1.77;;;0.50;99.90;;;-144.05;72.43;57065.47;5051485;28;20025;-77
2023/03/27 02:31:28;;;;;;;;;;;0.50;99.90;;;-144.05;72.83;57067.59;5033326;28;20511;-77
2023/03/27 02:34:27;;;;;;;11.95;2.53;;;0.40;99.90;;;-144.05;73.35;57065.47;5050627;28;19908;-76
2023/03/27 02:37:40;;;;;;;7.05;1.85;;;0.40;99.90;;;-144.05;73.43;57095.22;5050870;28;20040;-75
2023/03/27 02:40:46;;;;;;;15.27;3.03;;;0.40;99.90;;;-144.05;73.39;57078.22;5050332;28;20036;-76
2023/03/27 02:43:33;;;;;;;12.80;2.65;;;0.30;99.90;;;-144.05;73.18;57099.47;5050542;28;20308;-74
2023/03/27 02:46:18;;;;;;;14.32;3.25;;;0.30;99.90;;;-144.05;73.47;57061.22;5050783;28;20021;-76
2023/03/27 02:48:58;;;;;;;12.25;2.78;;;0.30;99.90;;;-144.05;73.47;57073.97;5050569;28;20152;-77
2023/03/27 02:52:07;;;;;;;12.23;4.20;;;0.20;99.90;;;-144.05;73.57;57099.47;5050722;28;20204;-76
2023/03/27 02:54:45;;;;;;;12.63;3.80;;;0.20;99.90;;;-144.05;73.71;57071.84;5015566;28;20094;-75
2023/03/27 02:57:21;;;;;;;7.22;3.05;;;0.20;99.90;;;-144.05;73.41;57082.47;5054210;28;20028;-77
2023/03/27 03:00:19;;;;;;;12.65;3.05;;;0.20;99.90;;;-144.05;73.60;57103.72;5053981;28;20029;-75
2023/03/27 03:02:49;;;;;;;15.07;2.08;;;0.20;99.90;;;-144.05;74.76;57107.97;5053816;28;20033;-76
2023/03/27 03:05:22;;;;;;;14.82;3.30;;;0.20;99.90;;;-144.05;74.80;57099.47;5054242;28;20032;-76
2023/03/27 03:07:49;;;;;;;14.55;4.28;;;0.10;99.90;;;-144.05;74.75;57061.22;5053815;28;20085;-77
2023/03/27 03:10:15;;;;;;;12.13;2.90;;;0.20;99.90;;;-144.05;74.49;57080.34;5053662;28;20025;-75
2023/03/27 03:12:42;;;;;;;11.63;3.08;;;;;;;-144.05;74.85;57048.50;5053959;28;20025;-76
2023/03/27 03:15:09;;;;;;;19.80;2.78;;;0.00;99.90;;;-144.05;75.39;57114.34;5053965;28;20352;-75
2023/03/27 03:17:35;;;;;;;8.32;2.72;;;0.10;99.90;;;-144.05;75.05;57071.84;5054809;28;20170;-78
2023/03/27 03:20:02;;;;;;;14.50;2.97;;;0.10;99.90;;;-144.05;74.54;57082.47;5053991;28;20078;-76
2023/03/27 03:22:27;;;;;;;8.88;2.53;;;0.10;99.90;;;-144.05;74.32;57086.72;5054107;28;20082;-76
2023/03/27 03:24:53;;;;;;;13.50;2.30;;;0.10;99.90;;;-144.05;74.56;57084.59;5054059;28;20431;-78
2023/03/27 03:27:19;;;;;;;12.45;2.83;;;0.10;99.90;;;-144.05;74.84;57065.47;5054694;28;20037;-78
2023/03/27 03:29:47;;;;;;;11.00;3.10;;;0.10;99.90;;;-144.05;74.82;57071.84;5054044;28;20059;-76
2023/03/27 03:32:14;;;;;;;7.43;3.15;;;0.00;99.90;;;-144.05;74.44;57071.84;5053481;28;20376;-76
2023/03/27 03:34:45;;;;;;;14.77;2.55;;;0.00;99.90;;;-144.05;74.62;57059.09;5053603;28;20111;-74
2023/03/27 03:37:11;;;;;;;17.17;3.03;;;0.00;99.90;;;-144.05;74.80;57084.59;5053621;28;20021;-75
2023/03/27 03:39:37;;;;;;;11.98;2.88;;;0.00;99.90;;;-144.05;74.97;57120.72;5053637;28;20025;-77
2023/03/27 03:42:04;;;;;;;11.80;2.67;;;0.00;99.90;;;-144.05;74.91;57059.09;5053573;28;20081;-76
2023/03/27 03:44:30;;;;;;;12.23;3.00;;;0.00;99.90;;;-144.05;75.07;57067.59;5053882;28;20043;-75
2023/03/27 03:46:56;;;;;;;13.88;3.45;;;0.00;99.90;;;-144.05;74.90;57069.72;5035418;28;20029;-76
2023/03/27 03:49:21;;;;;;;9.57;2.83;;;-0.10;99.90;;;-144.05;74.99;57082.47;5052810;28;20029;-76
2023/03/27 03:51:47;;;;;;;13.90;2.95;;;-0.10;99.90;;;-144.05;75.26;57086.72;5035062;28;20455;-76
2023/03/27 03:54:13;;;;;;;10.65;2.20;;;-0.10;99.90;;;-144.05;75.05;57093.09;5053243;28;20530;-77
2023/03/27 03:56:40;;;;;;;13.05;3.10;;;-0.10;99.90;;;-144.05;74.89;57073.97;5053199;28;20045;-76
2023/03/27 03:59:08;;;;;;;8.90;2.20;;;-0.20;99.90;;;-144.05;74.83;57076.09;5052538;28;20125;-77
2023/03/27 04:01:34;;;;;;;10.60;2.20;;;-0.20;99.90;;;-144.05;75.10;57067.59;5052900;28;20041;-77
2023/03/27 04:04:01;;;;;;;14.35;3.10;;;-0.20;99.90;;;-144.05;75.08;57095.22;5052666;28;20071;-77
2023/03/27 04:06:29;;;;;;;14.95;2.85;;;-0.20;99.90;;;-144.05;75.02;57088.84;5033874;28;20043;-77
2023/03/27 04:08:56;;;;;;;12.00;2.63;;;-0.20;99.90;;;-144.05;75.13;57067.59;5053153;28;20025;-78
2023/03/27 04:11:22;;;;;;;15.52;3.03;;;-0.20;99.90;;;-144.05;75.10;57073.97;5052832;28;20024;-77
2023/03/27 04:13:49;;;;;;;15.68;3.38;;;-0.20;99.90;;;-144.05;75.13;57082.47;5035474;28;20034;-77
2023/03/27 04:16:15;;;;;;;15.35;3.15;;;-0.20;99.90;;;-144.05;75.33;57078.22;5035083;28;20398;-77
2023/03/27 04:18:41;;;;;;;16.38;4.18;;;-0.10;99.90;;;-144.05;75.18;57069.72;5052960;28;20032;-77
2023/03/27 04:21:16;;;;;;;12.45;4.13;;;-0.10;99.90;;;-144.05;75.46;57052.75;5052589;28;20033;-76
2023/03/27 04:23:46;;;;;;;13.00;3.50;;;-0.20;99.90;;;-144.05;75.43;57067.59;5034666;28;20040;-76
2023/03/27 04:26:14;;;;;;;11.43;2.72;;;-0.20;99.90;;;-144.05;75.40;57095.22;5034764;28;20037;-77
2023/03/27 04:28:41;;;;;;;15.02;3.10;;;-0.20;99.90;;;-144.05;75.47;57065.47;5034318;28;20103;-77
2023/03/27 04:31:09;;;;;;;18.17;3.28;;;-0.20;99.90;;;-144.05;75.43;57071.84;5053551;28;20036;-77
2023/03/27 04:33:38;;;;;;;12.80;2.90;;;-0.10;99.90;;;-144.05;75.62;57080.34;5060127;28;20035;-78
2023/03/27 04:36:07;;;;;;;11.98;3.05;;;0.00;99.90;;;-144.05;75.50;57065.47;5043270;28;20039;-78
2023/03/27 04:38:38;;;;;;;17.95;3.35;;;0.00;99.90;;;-144.05;75.54;57080.34;5051782;28;20033;-75
2023/03/27 04:41:05;;;;;;;19.92;3.85;;;0.10;99.90;;;-144.05;75.44;57114.34;5052349;28;20085;-75
2023/03/27 04:43:35;;;;;;;27.90;5.13;;;0.10;99.90;;;-144.05;75.45;57069.72;5052014;28;20124;-76
2023/03/27 04:46:05;;;;;;;24.23;5.85;;;0.10;99.90;;;-144.05;75.42;57067.59;5052080;28;20129;-76
2023/03/27 04:48:32;;;;;;;22.92;5.50;;;0.10;99.90;;;-144.05;75.39;57095.22;5052008;28;20060;-76
2023/03/27 04:50:58;;;;;;;28.45;6.53;;;0.00;99.90;;;-144.05;75.44;57086.72;5051704;28;20438;-76
2023/03/27 04:53:29;;;;;;;34.03;6.13;;;0.00;99.90;;;-144.05;75.64;57080.34;5052324;28;20029;-76
2023/03/27 04:55:56;;;;;;;25.50;6.22;;;-0.10;99.90;;;-144.05;75.88;57067.59;5051937;28;20036;-76
2023/03/27 04:58:24;;;;;;;26.45;6.30;;;-0.10;99.90;;;-144.05;76.02;57078.22;5051523;28;20028;-75
2023/03/27 05:00:54;;;;;;;28.13;5.70;;;0.00;99.90;;;-144.05;75.85;57071.84;5051341;28;20044;-77
2023/03/27 05:03:24;;;;;;;21.65;4.10;;;0.00;99.90;;;-144.05;76.12;57076.09;5033596;28;20029;-74
2023/03/27 05:05:50;;;;;;;16.15;4.45;;;0.10;99.90;;;-144.05;75.89;57067.59;5051708;28;20048;-74
2023/03/27 05:08:17;;;;;;;8.82;3.50;;;0.10;99.90;;;-144.05;76.05;57118.59;5051371;28;20206;-76
2023/03/27 05:10:45;;;;;;;12.48;3.38;;;0.20;99.90;;;-144.05;75.75;57086.72;5051752;28;20087;-77
2023/03/27 05:13:11;;;;;;;17.38;3.38;;;0.20;99.90;;;-144.05;75.87;57073.97;5051494;28;20036;-75
2023/03/27 05:15:37;;;;;;;17.23;3.60;;;0.20;99.90;;;-144.05;75.99;57052.75;5051918;28;20037;-75
2023/03/27 05:18:05;;;;;;;15.57;3.30;;;0.30;99.90;;;-144.05;75.93;57040.00;5050973;28;20052;-76
2023/03/27 05:20:32;;;;;;;15.48;3.53;;;0.20;99.90;;;-144.05;75.83;57067.59;5034130;28;20396;-77
2023/03/27 05:22:58;;;;;;;14.85;3.30;;;0.30;99.90;;;-144.05;76.15;57086.72;5051407;28;20041;-76
2023/03/27 05:25:24;;;;;;;15.55;4.03;;;0.40;99.90;;;-144.05;76.09;57063.34;5051543;28;20036;-77
2023/03/27 05:27:53;;;;;;;15.82;3.75;;;0.40;99.90;;;-144.05;75.65;57067.59;5051634;28;20472;-77
2023/03/27 05:30:22;;;;;;;21.17;4.20;;;0.50;99.90;;;-144.05;75.50;57050.63;5051902;28;20021;-77
2023/03/27 05:32:51;;;;;;;22.92;5.60;;;0.40;99.90;;;-144.05;75.87;57054.88;5051724;28;20510;-77
2023/03/27 05:35:22;;;;;;;22.67;6.55;;;0.50;99.90;;;-144.05;75.90;57065.47;5033949;28;20124;-77
2023/03/27 05:37:52;;;;;;;30.20;8.35;;;0.60;99.90;;;-144.05;75.42;57052.75;5051726;28;20086;-77
2023/03/27 05:40:27;;;;;;;25.38;7.75;;;0.70;99.90;;;-144.05;75.06;57044.25;5051114;28;20036;-76
2023/03/27 05:42:55;;;;;;;19.10;5.22;;;0.80;99.90;;;-144.05;74.87;57063.34;5052293;28;20025;-77
2023/03/27 05:45:22;;;;;;;17.25;4.95;;;1.00;99.90;;;-144.05;74.69;57076.09;5035257;28;20021;-76
2023/03/27 05:47:56;;;;;;;15.52;4.10;;;1.10;99.90;;;-144.05;74.21;57050.63;5051961;28;20025;-77
2023/03/27 05:50:28;;;;;;;15.60;4.85;;;1.30;99.90;;;-144.05;73.75;57056.97;5051702;28;20020;-77
2023/03/27 05:53:03;;;;;;;13.48;4.88;;;1.40;99.90;;;-144.05;73.08;57029.38;5051939;28;20154;-76
2023/03/27 05:55:30;;;;;;;15.48;3.38;;;1.60;99.90;;;-144.05;72.92;57052.75;5052168;28;20021;-76
2023/03/27 05:57:56;;;;;;;13.35;3.38;;;1.60;99.90;;;-144.05;72.00;57050.63;5051970;28;20025;-77
2023/03/27 06:00:26;;;;;;;8.43;2.28;;;1.80;99.90;;;-144.05;71.77;57048.50;5052258;28;20044;-75
2023/03/27 06:02:58;;;;;;;16.70;2.47;;;1.80;99.90;;;-144.05;71.27;57044.25;5052510;28;20108;-78
2023/03/27 06:05:28;;;;;;;16.98;3.20;;;1.90;99.90;;;-144.05;70.79;57069.72;5051989;28;20388;-78
2023/03/27 06:07:57;;;;;;;11.63;2.30;;;2.00;99.90;;;-144.05;70.49;57061.22;5051908;28;20027;-77
2023/03/27 06:10:27;;;;;;;9.40;3.10;;;2.10;99.90;;;-144.05;70.28;57065.47;5034024;28;20029;-77
2023/03/27 06:13:07;;;;;;;9.10;2.45;;;2.20;99.90;;;-144.05;70.27;57029.38;5057878;28;20033;-77
2023/03/27 06:15:37;;;;;;;9.23;2.35;;;2.30;99.90;;;-144.05;69.75;57020.88;5073140;28;20016;-77
2023/03/27 06:18:03;;;;;;;7.85;1.70;;;2.40;99.90;;;-144.05;69.34;57061.22;5054026;28;20545;-76
2023/03/27 06:20:29;;;;;;;10.40;2.53;;;2.50;99.90;;;-144.05;69.85;57086.72;5071052;28;20040;-77
2023/03/27 06:22:59;;;;;;;8.75;2.45;;;2.60;99.90;;;-144.05;69.62;57031.50;5070657;28;20041;-77
2023/03/27 06:25:30;;;;;;;17.35;2.75;;;2.70;99.90;;;-144.05;68.74;57008.13;5065423;28;20033;-75
2023/03/27 06:27:56;;;;;;;12.85;1.92;;;2.80;99.90;;;-144.05;68.40;57023.00;5052663;28;20542;-75
2023/03/27 06:30:25;;;;;;;7.75;2.10;;;2.90;99.90;;;-144.05;67.03;57027.25;5055783;28;20032;-76
2023/03/27 06:32:58;;;;;;;10.13;3.38;;;3.00;99.90;;;-144.05;66.48;57029.38;5056002;28;20081;-76
2023/03/27 06:35:31;;;;;;;9.70;2.05;;;3.00;99.90;;;-144.05;66.14;57006.00;5056067;28;20036;-76
2023/03/27 06:38:01;;;;;;;11.93;2.75;;;3.00;99.90;;;-144.05;66.02;57003.88;5055829;28;20532;-76
2023/03/27 06:40:31;;;;;;;12.35;2.20;;;3.00;99.90;;;-144.05;66.34;57048.50;5055407;28;20515;-76
2023/03/27 06:43:05;;;;;;;11.05;2.25;;;2.90;99.90;;;-144.05;66.43;57031.50;5054863;28;20037;-77
2023/03/27 06:45:44;;;;;;;11.40;2.10;;;2.80;99.90;;;-144.05;65.93;56997.50;5054305;28;20040;-76
2023/03/27 06:48:12;;;;;;;10.23;2.20;;;3.00;99.90;;;-144.05;64.89;57025.13;5036247;28;20116;-75
2023/03/27 06:50:39;;;;;;;7.32;2.38;;;3.40;99.90;;;-144.05;62.49;57023.00;5054211;28;20025;-77
2023/03/27 06:53:05;;;;;;;6.05;1.95;;;3.80;99.90;;;-144.05;60.90;56997.50;5054366;28;20029;-76
2023/03/27 06:55:33;;;;;;;10.88;2.92;;;4.00;99.90;;;-144.05;59.77;57018.75;5054279;28;20048;-77
2023/03/27 06:58:02;;;;;;;6.13;1.50;;;4.30;99.90;;;-144.05;59.57;57018.75;5060329;28;20040;-77
2023/03/27 07:00:34;;;;;;;7.35;1.90;;;4.40;99.90;;;-144.05;59.25;56997.50;5059094;28;20116;-76
2023/03/27 07:03:07;;;;;;;8.43;3.25;;;4.60;99.90;;;-144.05;58.69;57018.75;5054367;28;20099;-77
2023/03/27 07:05:36;;;;;;;8.80;3.00;;;4.70;99.90;;;-144.05;58.66;56993.25;5053816;28;20037;-76
2023/03/27 07:08:15;;;;;;;8.20;2.00;;;4.80;99.90;;;-144.05;58.79;56997.50;5053502;28;20110;-77
2023/03/27 07:10:41;;;;;;;7.60;1.65;;;4.80;99.90;;;-144.05;59.41;57006.00;5053717;28;20021;-77
2023/03/27 07:13:07;;;;;;;9.07;1.98;;;4.70;99.90;;;-144.05;59.70;57023.00;5053955;28;20060;-76
2023/03/27 07:15:34;;;;;;;6.95;1.95;;;4.70;99.90;;;-144.05;58.77;56982.66;5036372;28;20033;-78
2023/03/27 07:18:05;;;;;;;9.23;2.10;;;4.90;99.90;;;-144.05;57.71;57020.88;5054067;28;20029;-78
2023/03/27 07:20:33;;;;;;;13.73;2.15;;;5.10;99.90;;;-144.05;57.33;56984.78;5054168;28;20029;-77
2023/03/27 07:23:01;;;;;;;16.02;2.42;;;5.40;99.90;;;-144.05;55.96;57014.50;5053470;28;20078;-76
2023/03/27 07:25:36;;;;;;;8.60;1.90;;;5.50;99.90;;;-144.05;55.76;56993.25;5053499;28;20037;-76
2023/03/27 07:28:15;;;;;;;6.97;1.85;;;5.60;99.90;;;-144.05;54.87;56995.38;5035548;28;20021;-77
2023/03/27 07:30:41;;;;;;;7.47;1.45;;;5.70;99.90;;;-144.05;54.58;56995.38;5035736;28;20053;-77
2023/03/27 07:33:08;;;;;;;7.63;2.40;;;5.70;99.90;;;-144.05;55.45;57006.00;5053687;28;20575;-77
2023/03/27 07:35:45;;;;;;;10.52;1.75;;;5.70;99.90;;;-144.05;55.48;56976.28;5053583;28;20396;-77
2023/03/27 07:38:12;;;;;;;3.15;1.67;;;5.80;99.90;;;-144.05;55.91;57001.75;5053501;28;20040;-76
2023/03/27 07:40:38;;;;;;;4.20;1.77;;;5.90;99.90;;;-144.05;55.29;56991.13;5052978;28;20040;-75
2023/03/27 07:43:07;;;;;;;4.50;1.23;;;5.70;99.90;;;-144.05;55.49;56995.38;5053581;28;20033;-77
2023/03/27 07:45:34;;;;;;;5.78;1.85;;;5.90;99.90;;;-144.05;54.87;57012.38;5053618;28;20135;-75
2023/03/27 07:48:14;;;;;;;7.07;1.67;;;6.10;99.90;;;-144.05;53.78;56986.91;5053231;28;20024;-76
2023/03/27 07:50:41;;;;;;;20.40;2.20;;;6.10;99.90;;;-144.05;53.10;56984.78;5053380;28;20066;-77
2023/03/27 07:53:07;;;;;;;4.95;1.50;;;6.20;99.90;;;-144.05;52.62;56993.25;5053602;28;20515;-76
2023/03/27 07:55:36;;;;;;;10.57;1.58;;;7.00;99.90;;;-144.05;51.66;56967.78;5035503;28;20033;-76
2023/03/27 07:58:02;;;;;;;9.20;1.30;;;7.40;99.90;;;-144.05;50.42;56993.25;5053103;28;20029;-77
2023/03/27 08:00:31;;;;;;;9.65;1.50;;;7.10;99.90;;;-144.05;50.20;57001.75;5053089;28;20029;-76
2023/03/27 08:03:10;;;;;;;7.57;1.60;;;6.80;99.90;;;-144.05;51.45;57016.63;5035308;28;20259;-76
2023/03/27 08:05:37;;;;;;;5.22;1.70;;;6.60;99.90;;;-144.05;50.87;56974.16;5053819;28;20025;-75
2023/03/27 08:08:03;;;;;;;8.55;1.55;;;6.70;99.90;;;-144.05;50.79;56986.91;5053357;28;20025;-76
2023/03/27 08:10:30;;;;;;;5.85;1.48;;;6.70;99.90;;;-144.05;49.45;56955.03;5053282;28;20405;-76
2023/03/27 08:12:56;;;;;;;3.70;1.20;;;7.10;99.90;;;-144.05;48.52;56978.41;5035628;28;20120;-77
2023/03/27 08:15:23;;;;;;;9.82;1.90;;;7.10;99.90;;;-144.05;49.35;56972.03;5053040;28;20116;-77
2023/03/27 08:17:53;;;;;;;10.07;1.42;;;6.80;99.90;;;-144.05;49.13;56982.66;5053101;28;20108;-76
2023/03/27 08:20:22;;;;;;;7.00;1.38;;;7.00;99.90;;;-144.05;48.38;56989.00;5052508;28;20025;-76
2023/03/27 08:22:51;;;;;;;4.93;1.02;;;7.10;99.90;;;-144.05;47.74;56982.66;5052715;28;20025;-76
2023/03/27 08:25:18;;;;;;;6.95;1.45;;;7.40;99.90;;;-144.05;47.29;56989.00;5052764;28;20032;-77
2023/03/27 08:27:44;;;;;;;3.90;1.30;;;7.40;99.90;;;-144.05;48.05;56999.63;5052884;28;20528;-77
2023/03/27 08:30:13;;;;;;;8.00;1.48;;;6.90;99.90;;;-144.05;48.90;56999.63;5052282;28;20032;-77
2023/03/27 08:32:42;;;;;;;6.38;1.40;;;6.60;99.90;;;-144.05;50.16;56991.13;5052416;28;20044;-77
2023/03/27 08:35:09;;;;;;;7.75;2.13;;;6.30;99.90;;;-144.05;49.82;56978.41;5052743;28;20025;-78
2023/03/27 08:37:35;;;;;;;4.60;1.23;;;6.00;99.90;;;-144.05;49.90;57003.88;5035039;28;20028;-77
2023/03/27 08:40:01;;;;;;;7.75;1.52;;;5.90;99.90;;;-144.05;49.71;56999.63;5052213;28;20029;-77
2023/03/27 08:42:41;;;;;;;6.32;1.73;;;5.90;99.90;;;-144.05;50.24;56965.66;5052279;28;20029;-77
2023/03/27 08:45:47;;;;;;;5.22;1.55;;;6.10;99.90;;;-144.05;48.90;56993.25;5052490;28;20063;-76
2023/03/27 08:48:26;;;;;;;9.25;1.35;;;6.30;99.90;;;-144.05;48.44;56976.28;5052170;28;20025;-77
2023/03/27 08:51:27;;;;;;;19.52;3.75;;;6.40;99.90;;;-144.05;48.42;56976.28;5051466;28;20116;-76
2023/03/27 08:54:21;;;;;;;8.35;2.20;;;6.70;99.90;;;-144.05;48.10;56969.91;5052341;28;20183;-76
2023/03/27 08:56:48;;;;;;;8.25;1.67;;;6.60;99.90;;;-144.05;49.36;56984.78;5052676;28;20202;-77
2023/03/27 08:59:21;;;;;;;24.85;4.07;;;6.50;99.90;;;-144.05;49.47;56984.78;5051979;28;20074;-76
2023/03/27 09:02:47;;;;;;;15.15;2.58;;;6.30;99.90;;;-144.05;48.95;56972.03;5052748;28;20025;-77
2023/03/27 09:05:22;;;;;;;8.23;1.23;;;6.20;99.90;;;-144.05;48.68;56969.91;5034630;28;20033;-76
2023/03/27 09:08:24;;;;;;;31.98;4.95;;;7.10;99.90;;;-144.05;45.42;56957.16;5053591;28;20025;-76
2023/03/27 09:11:56;;;;;;;6.47;1.48;;;8.00;99.90;;;-144.05;44.08;56957.16;5053568;28;20021;-77
2023/03/27 09:14:36;;;;;;;13.88;2.65;;;7.90;99.90;;;-144.05;45.28;56978.41;5036283;28;20518;-75
2023/03/27 09:17:22;;;;;;;16.88;2.13;;;7.20;99.90;;;-144.05;44.26;56967.78;5037490;28;20079;-77
2023/03/27 09:19:59;;;;;;;;;;;7.40;99.90;;;-144.05;44.95;56946.53;5054834;28;20017;-77
2023/03/27 09:22:39;;;;;;;8.82;1.25;;;7.60;99.90;;;-144.05;43.94;57003.88;5060722;28;19971;-77
2023/03/27 09:25:45;;;;;;;11.98;1.48;;;7.30;99.90;;;-144.05;46.53;56989.00;5034984;28;20117;-78
2023/03/27 09:28:38;;;;;;;4.60;1.02;;;7.10;99.90;;;-144.05;47.24;57001.75;5018918;28;20036;-76
2023/03/27 09:31:27;;;;;;;6.65;1.00;;;6.90;99.90;;;-144.05;48.30;57014.50;5052308;28;20404;-76
2023/03/27 09:33:58;;;;;;;8.13;1.50;;;6.50;99.90;;;-144.05;49.13;57001.75;5052914;28;20109;-77
2023/03/27 09:36:24;;;;;;;9.93;1.42;;;7.00;99.90;;;-144.05;45.32;56957.16;5053703;28;20459;-76
2023/03/27 09:39:01;;;;;;;5.88;1.13;;;7.50;99.90;;;-144.05;44.11;56961.41;5053281;28;20033;-76
2023/03/27 09:41:40;;;;;;;6.47;1.58;;;7.90;99.90;;;-144.05;43.24;56944.41;5052787;28;20476;-77
2023/03/27 09:44:26;;;;;;;3.25;1.15;;;8.30;99.90;;;-144.05;40.82;56942.28;5053230;28;20040;-76
2023/03/27 09:47:08;;;;;;;3.38;0.93;;;9.00;99.90;;;-144.05;41.27;56950.78;5052731;28;20027;-76
2023/03/27 09:49:39;;;;;;;4.80;0.90;;;8.80;99.90;;;-144.05;43.81;56963.53;5052682;28;20028;-76
2023/03/27 09:52:06;;;;;;;8.27;1.20;;;8.30;99.90;;;-144.05;46.09;56965.66;5052576;28;20465;-76
2023/03/27 09:54:54;;;;;;;6.88;1.20;;;8.00;99.90;;;-144.05;44.54;56961.41;5052798;28;20560;-78
2023/03/27 09:57:21;;;;;;;4.40;1.10;;;8.20;99.90;;;-144.05;43.89;56980.53;5052876;28;20040;-77
2023/03/27 10:00:08;;;;;;;4.30;1.10;;;7.90;99.90;;;-144.05;43.72;56980.53;5052989;28;20047;-77
2023/03/27 10:02:36;;;;;;;4.63;1.42;;;7.90;99.90;;;-144.05;42.27;56984.78;5053685;28;20029;-75
2023/03/27 10:05:24;;;;;;;8.45;1.35;;;8.20;99.90;;;-144.05;41.72;56991.13;5039312;28;20034;-78
2023/03/27 10:07:49;;;;;;;21.88;3.40;;;8.20;99.90;;;-144.05;41.08;56980.53;5038564;28;20033;-78
2023/03/27 10:10:19;;;;;;;18.48;2.28;;;8.70;99.90;;;-144.05;40.19;56952.91;5056805;28;20025;-76
2023/03/27 10:12:56;;;;;;;10.05;1.13;;;9.10;99.90;;;-144.05;40.26;56946.53;5057820;28;20431;-77
2023/03/27 10:15:38;;;;;;;7.78;1.73;;;8.80;99.90;;;-144.05;41.30;56980.53;5056724;28;20434;-76
2023/03/27 10:18:28;;;;;;;19.15;1.85;;;8.50;99.90;;;-144.05;41.53;56967.78;5038017;28;20123;-77
2023/03/27 10:21:05;;;;;;;23.25;3.15;;;8.10;99.90;;;-144.05;43.49;56991.13;5056120;28;20056;-76
2023/03/27 10:23:48;;;;;;;14.93;1.92;;;7.60;99.90;;;-144.05;42.88;56978.41;5056081;28;20036;-76
2023/03/27 10:26:26;;;;;;;4.03;0.98;;;7.90;99.90;;;-144.05;41.18;56967.78;5055958;28;20040;-75
2023/03/27 10:29:17;;;;;;;6.18;1.00;;;8.40;99.90;;;-144.05;39.54;56955.03;5038386;28;20068;-76
2023/03/27 10:31:56;;;;;;;24.55;3.58;;;9.10;99.90;;;-144.05;39.46;56969.91;5057240;28;20257;-78
2023/03/27 10:34:56;;;;;;;3.15;1.08;;;9.90;99.90;;;-144.05;39.16;56942.28;5056601;28;20098;-77
2023/03/27 10:37:33;;;;;;;6.70;1.23;;;9.80;99.90;;;-144.05;41.39;56989.00;5039066;28;20464;-76
2023/03/27 10:40:08;;;;;;;6.35;1.25;;;8.60;99.90;;;-144.05;42.85;56978.41;5056516;28;20035;-75
2023/03/27 10:42:36;;;;;;;5.75;1.20;;;8.00;99.90;;;-144.05;42.84;56965.66;5057030;28;20025;-75